sensor_id;sensor_type;location;lat;lon;timestamp;P1;durP1;ratioP1;P2;durP2;ratioP2
49946;SDS011;35839;48.662;13.300;2024-02-26T00:02:11;12.70;;;7.83;;
49946;SDS011;35839;48.662;13.300;2024-02-26T00:04:36;10.77;;;7.50;;
49946;SDS011;35839;48.662;13.300;2024-02-26T00:07:01;12.17;;;8.13;;
49946;SDS011;35839;48.662;13.300;2024-02-26T00:09:28;11.90;;;8.10;;
49946;SDS011;35839;48.662;13.300;2024-02-26T00:11:53;11.70;;;8.20;;
49946;SDS011;35839;48.662;13.300;2024-02-26T00:14:20;10.07;;;7.90;;
49946;SDS011;35839;48.662;13.300;2024-02-26T00:16:46;12.93;;;8.73;;
49946;SDS011;35839;48.662;13.300;2024-02-26T00:19:11;12.77;;;8.53;;
49946;SDS011;35839;48.662;13.300;2024-02-26T00:21:39;15.10;;;8.13;;
49946;SDS011;35839;48.662;13.300;2024-02-26T00:24:07;13.47;;;8.27;;
49946;SDS011;35839;48.662;13.300;2024-02-26T00:26:32;13.87;;;8.20;;
49946;SDS011;35839;48.662;13.300;2024-02-26T00:28:58;12.93;;;8.73;;
49946;SDS011;35839;48.662;13.300;2024-02-26T00:31:23;13.67;;;8.17;;
49946;SDS011;35839;48.662;13.300;2024-02-26T00:33:48;12.73;;;8.47;;
49946;SDS011;35839;48.662;13.300;2024-02-26T00:36:14;13.37;;;8.60;;
49946;SDS011;35839;48.662;13.300;2024-02-26T00:38:40;15.60;;;8.97;;
49946;SDS011;35839;48.662;13.300;2024-02-26T00:41:05;12.93;;;7.43;;
49946;SDS011;35839;48.662;13.300;2024-02-26T00:43:31;14.07;;;8.53;;
49946;SDS011;35839;48.662;13.300;2024-02-26T00:45:57;14.23;;;8.33;;
49946;SDS011;35839;48.662;13.300;2024-02-26T00:48:22;14.87;;;8.80;;
49946;SDS011;35839;48.662;13.300;2024-02-26T00:50:50;12.03;;;8.30;;
49946;SDS011;35839;48.662;13.300;2024-02-26T00:53:16;15.40;;;8.10;;
49946;SDS011;35839;48.662;13.300;2024-02-26T00:55:41;13.07;;;8.47;;
49946;SDS011;35839;48.662;13.300;2024-02-26T00:58:06;12.43;;;8.53;;
49946;SDS011;35839;48.662;13.300;2024-02-26T01:00:32;12.43;;;8.03;;
49946;SDS011;35839;48.662;13.300;2024-02-26T01:02:57;11.93;;;8.20;;
49946;SDS011;35839;48.662;13.300;2024-02-26T01:05:24;13.07;;;7.93;;
49946;SDS011;35839;48.662;13.300;2024-02-26T01:07:49;12.13;;;7.73;;
49946;SDS011;35839;48.662;13.300;2024-02-26T01:10:15;14.70;;;8.93;;
49946;SDS011;35839;48.662;13.300;2024-02-26T01:12:40;14.33;;;8.33;;
49946;SDS011;35839;48.662;13.300;2024-02-26T01:15:05;11.27;;;7.97;;
49946;SDS011;35839;48.662;13.300;2024-02-26T01:17:31;11.07;;;7.47;;
49946;SDS011;35839;48.662;13.300;2024-02-26T01:19:56;12.30;;;8.67;;
49946;SDS011;35839;48.662;13.300;2024-02-26T01:22:22;12.13;;;6.97;;
49946;SDS011;35839;48.662;13.300;2024-02-26T01:24:47;11.40;;;6.97;;
49946;SDS011;35839;48.662;13.300;2024-02-26T01:27:13;11.93;;;6.87;;
49946;SDS011;35839;48.662;13.300;2024-02-26T01:29:40;12.47;;;7.63;;
49946;SDS011;35839;48.662;13.300;2024-02-26T01:32:06;12.93;;;7.23;;
49946;SDS011;35839;48.662;13.300;2024-02-26T01:34:31;10.90;;;7.43;;
49946;SDS011;35839;48.662;13.300;2024-02-26T01:36:57;13.77;;;6.70;;
49946;SDS011;35839;48.662;13.300;2024-02-26T01:39:22;11.37;;;6.90;;
49946;SDS011;35839;48.662;13.300;2024-02-26T01:41:48;10.67;;;7.10;;
49946;SDS011;35839;48.662;13.300;2024-02-26T01:44:13;10.53;;;6.83;;
49946;SDS011;35839;48.662;13.300;2024-02-26T01:46:39;8.93;;;7.20;;
49946;SDS011;35839;48.662;13.300;2024-02-26T01:49:04;10.77;;;7.57;;
49946;SDS011;35839;48.662;13.300;2024-02-26T01:51:31;12.40;;;8.07;;
49946;SDS011;35839;48.662;13.300;2024-02-26T01:53:59;8.60;;;7.10;;
49946;SDS011;35839;48.662;13.300;2024-02-26T01:56:26;9.83;;;6.90;;
49946;SDS011;35839;48.662;13.300;2024-02-26T01:58:55;10.68;;;6.68;;
49946;SDS011;35839;48.662;13.300;2024-02-26T02:01:21;12.97;;;6.80;;
49946;SDS011;35839;48.662;13.300;2024-02-26T02:03:50;10.03;;;6.43;;
49946;SDS011;35839;48.662;13.300;2024-02-26T02:06:16;10.10;;;7.20;;
49946;SDS011;35839;48.662;13.300;2024-02-26T02:08:42;11.23;;;6.60;;
49946;SDS011;35839;48.662;13.300;2024-02-26T02:11:07;9.63;;;6.40;;
49946;SDS011;35839;48.662;13.300;2024-02-26T02:13:36;11.17;;;7.00;;
49946;SDS011;35839;48.662;13.300;2024-02-26T02:16:02;11.60;;;7.57;;
49946;SDS011;35839;48.662;13.300;2024-02-26T02:18:27;13.03;;;7.37;;
49946;SDS011;35839;48.662;13.300;2024-02-26T02:20:53;13.37;;;7.67;;
49946;SDS011;35839;48.662;13.300;2024-02-26T02:23:18;16.63;;;8.33;;
49946;SDS011;35839;48.662;13.300;2024-02-26T02:25:44;11.27;;;6.90;;
49946;SDS011;35839;48.662;13.300;2024-02-26T02:28:09;11.50;;;6.80;;
49946;SDS011;35839;48.662;13.300;2024-02-26T02:30:35;13.10;;;7.20;;
49946;SDS011;35839;48.662;13.300;2024-02-26T02:33:01;12.00;;;6.63;;
49946;SDS011;35839;48.662;13.300;2024-02-26T02:35:27;13.80;;;6.83;;
49946;SDS011;35839;48.662;13.300;2024-02-26T02:37:52;11.20;;;7.93;;
49946;SDS011;35839;48.662;13.300;2024-02-26T02:40:18;17.63;;;8.03;;
49946;SDS011;35839;48.662;13.300;2024-02-26T02:42:43;12.47;;;6.90;;
49946;SDS011;35839;48.662;13.300;2024-02-26T02:45:09;13.23;;;8.57;;
49946;SDS011;35839;48.662;13.300;2024-02-26T02:47:38;11.07;;;7.13;;
49946;SDS011;35839;48.662;13.300;2024-02-26T02:50:03;12.17;;;7.60;;
49946;SDS011;35839;48.662;13.300;2024-02-26T02:52:29;10.33;;;6.63;;
49946;SDS011;35839;48.662;13.300;2024-02-26T02:54:54;12.13;;;7.20;;
49946;SDS011;35839;48.662;13.300;2024-02-26T02:57:20;11.73;;;7.43;;
49946;SDS011;35839;48.662;13.300;2024-02-26T02:59:46;11.70;;;6.83;;
49946;SDS011;35839;48.662;13.300;2024-02-26T03:02:11;12.10;;;7.33;;
49946;SDS011;35839;48.662;13.300;2024-02-26T03:04:37;12.03;;;6.73;;
49946;SDS011;35839;48.662;13.300;2024-02-26T03:07:02;10.53;;;6.97;;
49946;SDS011;35839;48.662;13.300;2024-02-26T03:09:27;10.23;;;6.47;;
49946;SDS011;35839;48.662;13.300;2024-02-26T03:11:53;11.03;;;6.90;;
49946;SDS011;35839;48.662;13.300;2024-02-26T03:14:18;12.03;;;7.30;;
49946;SDS011;35839;48.662;13.300;2024-02-26T03:16:44;9.70;;;7.60;;
49946;SDS011;35839;48.662;13.300;2024-02-26T03:19:10;10.40;;;6.57;;
49946;SDS011;35839;48.662;13.300;2024-02-26T03:21:35;11.87;;;6.67;;
49946;SDS011;35839;48.662;13.300;2024-02-26T03:24:01;10.20;;;6.47;;
49946;SDS011;35839;48.662;13.300;2024-02-26T03:26:26;10.23;;;6.43;;
49946;SDS011;35839;48.662;13.300;2024-02-26T03:28:52;11.97;;;6.80;;
49946;SDS011;35839;48.662;13.300;2024-02-26T03:31:18;9.07;;;6.30;;
49946;SDS011;35839;48.662;13.300;2024-02-26T03:33:43;8.70;;;6.13;;
49946;SDS011;35839;48.662;13.300;2024-02-26T03:36:08;11.37;;;6.90;;
49946;SDS011;35839;48.662;13.300;2024-02-26T03:38:34;12.20;;;7.60;;
49946;SDS011;35839;48.662;13.300;2024-02-26T03:40:59;10.00;;;6.40;;
49946;SDS011;35839;48.662;13.300;2024-02-26T03:43:24;11.07;;;6.73;;
49946;SDS011;35839;48.662;13.300;2024-02-26T03:45:50;8.47;;;6.43;;
49946;SDS011;35839;48.662;13.300;2024-02-26T03:48:15;9.70;;;6.00;;
49946;SDS011;35839;48.662;13.300;2024-02-26T03:50:41;9.97;;;6.17;;
49946;SDS011;35839;48.662;13.300;2024-02-26T03:53:06;7.80;;;5.57;;
49946;SDS011;35839;48.662;13.300;2024-02-26T03:55:34;12.67;;;6.43;;
49946;SDS011;35839;48.662;13.300;2024-02-26T03:57:59;11.70;;;6.23;;
49946;SDS011;35839;48.662;13.300;2024-02-26T04:00:25;9.60;;;5.50;;
49946;SDS011;35839;48.662;13.300;2024-02-26T04:02:51;7.80;;;5.20;;
49946;SDS011;35839;48.662;13.300;2024-02-26T04:05:16;8.53;;;6.27;;
49946;SDS011;35839;48.662;13.300;2024-02-26T04:07:42;9.73;;;6.47;;
49946;SDS011;35839;48.662;13.300;2024-02-26T04:10:10;9.37;;;6.20;;
49946;SDS011;35839;48.662;13.300;2024-02-26T04:12:40;10.75;;;6.55;;
49946;SDS011;35839;48.662;13.300;2024-02-26T04:15:09;12.70;;;6.63;;
49946;SDS011;35839;48.662;13.300;2024-02-26T04:17:36;10.48;;;5.68;;
49946;SDS011;35839;48.662;13.300;2024-02-26T04:20:03;11.77;;;5.83;;
49946;SDS011;35839;48.662;13.300;2024-02-26T04:22:30;8.47;;;5.90;;
49946;SDS011;35839;48.662;13.300;2024-02-26T04:24:56;10.77;;;5.90;;
49946;SDS011;35839;48.662;13.300;2024-02-26T04:27:21;11.13;;;6.70;;
49946;SDS011;35839;48.662;13.300;2024-02-26T04:29:46;13.03;;;6.37;;
49946;SDS011;35839;48.662;13.300;2024-02-26T04:32:12;12.10;;;6.67;;
49946;SDS011;35839;48.662;13.300;2024-02-26T04:34:37;12.53;;;6.30;;
49946;SDS011;35839;48.662;13.300;2024-02-26T04:37:02;11.37;;;6.13;;
49946;SDS011;35839;48.662;13.300;2024-02-26T04:39:28;9.00;;;6.13;;
49946;SDS011;35839;48.662;13.300;2024-02-26T04:41:53;10.17;;;6.43;;
49946;SDS011;35839;48.662;13.300;2024-02-26T04:44:19;10.23;;;6.00;;
49946;SDS011;35839;48.662;13.300;2024-02-26T04:46:44;12.27;;;7.03;;
49946;SDS011;35839;48.662;13.300;2024-02-26T04:49:09;11.63;;;7.00;;
49946;SDS011;35839;48.662;13.300;2024-02-26T04:51:35;10.50;;;6.63;;
49946;SDS011;35839;48.662;13.300;2024-02-26T04:54:00;15.20;;;8.00;;
49946;SDS011;35839;48.662;13.300;2024-02-26T04:56:27;13.37;;;8.13;;
49946;SDS011;35839;48.662;13.300;2024-02-26T04:58:52;12.50;;;7.57;;
49946;SDS011;35839;48.662;13.300;2024-02-26T05:01:17;12.07;;;6.27;;
49946;SDS011;35839;48.662;13.300;2024-02-26T05:03:43;11.20;;;6.50;;
49946;SDS011;35839;48.662;13.300;2024-02-26T05:06:09;13.90;;;8.93;;
49946;SDS011;35839;48.662;13.300;2024-02-26T05:08:34;10.40;;;7.37;;
49946;SDS011;35839;48.662;13.300;2024-02-26T05:11:01;11.90;;;7.50;;
49946;SDS011;35839;48.662;13.300;2024-02-26T05:13:28;12.80;;;6.77;;
49946;SDS011;35839;48.662;13.300;2024-02-26T05:15:54;10.90;;;6.40;;
49946;SDS011;35839;48.662;13.300;2024-02-26T05:18:19;8.33;;;5.60;;
49946;SDS011;35839;48.662;13.300;2024-02-26T05:20:45;10.63;;;5.97;;
49946;SDS011;35839;48.662;13.300;2024-02-26T05:23:10;10.07;;;6.80;;
49946;SDS011;35839;48.662;13.300;2024-02-26T05:25:35;10.73;;;6.03;;
49946;SDS011;35839;48.662;13.300;2024-02-26T05:28:01;8.90;;;5.50;;
49946;SDS011;35839;48.662;13.300;2024-02-26T05:30:26;12.00;;;6.63;;
49946;SDS011;35839;48.662;13.300;2024-02-26T05:32:53;8.57;;;5.47;;
49946;SDS011;35839;48.662;13.300;2024-02-26T05:35:18;8.80;;;5.67;;
49946;SDS011;35839;48.662;13.300;2024-02-26T05:37:44;10.27;;;6.70;;
49946;SDS011;35839;48.662;13.300;2024-02-26T05:40:10;8.23;;;5.97;;
49946;SDS011;35839;48.662;13.300;2024-02-26T05:42:36;8.87;;;6.03;;
49946;SDS011;35839;48.662;13.300;2024-02-26T05:45:01;9.00;;;6.80;;
49946;SDS011;35839;48.662;13.300;2024-02-26T05:47:31;11.38;;;6.82;;
49946;SDS011;35839;48.662;13.300;2024-02-26T05:50:00;10.35;;;5.97;;
49946;SDS011;35839;48.662;13.300;2024-02-26T05:52:26;13.73;;;6.20;;
49946;SDS011;35839;48.662;13.300;2024-02-26T05:54:52;8.00;;;5.00;;
49946;SDS011;35839;48.662;13.300;2024-02-26T05:57:18;9.43;;;5.73;;
49946;SDS011;35839;48.662;13.300;2024-02-26T05:59:44;10.10;;;5.50;;
49946;SDS011;35839;48.662;13.300;2024-02-26T06:02:10;9.63;;;6.20;;
49946;SDS011;35839;48.662;13.300;2024-02-26T06:04:36;8.50;;;6.10;;
49946;SDS011;35839;48.662;13.300;2024-02-26T06:07:01;10.53;;;5.67;;
49946;SDS011;35839;48.662;13.300;2024-02-26T06:09:26;11.17;;;6.60;;
49946;SDS011;35839;48.662;13.300;2024-02-26T06:11:52;26.77;;;7.50;;
49946;SDS011;35839;48.662;13.300;2024-02-26T06:14:17;9.77;;;6.17;;
49946;SDS011;35839;48.662;13.300;2024-02-26T06:16:43;13.17;;;6.80;;
49946;SDS011;35839;48.662;13.300;2024-02-26T06:19:09;7.60;;;5.27;;
49946;SDS011;35839;48.662;13.300;2024-02-26T06:21:35;10.20;;;5.90;;
49946;SDS011;35839;48.662;13.300;2024-02-26T06:24:00;8.87;;;5.60;;
49946;SDS011;35839;48.662;13.300;2024-02-26T06:26:26;10.20;;;6.10;;
49946;SDS011;35839;48.662;13.300;2024-02-26T06:28:54;8.73;;;5.83;;
49946;SDS011;35839;48.662;13.300;2024-02-26T06:31:19;7.67;;;5.10;;
49946;SDS011;35839;48.662;13.300;2024-02-26T06:33:47;12.33;;;6.03;;
49946;SDS011;35839;48.662;13.300;2024-02-26T06:36:12;8.20;;;5.20;;
49946;SDS011;35839;48.662;13.300;2024-02-26T06:38:38;9.23;;;5.97;;
49946;SDS011;35839;48.662;13.300;2024-02-26T06:41:03;8.70;;;6.07;;
49946;SDS011;35839;48.662;13.300;2024-02-26T06:43:28;9.50;;;5.63;;
49946;SDS011;35839;48.662;13.300;2024-02-26T06:45:55;8.07;;;5.83;;
49946;SDS011;35839;48.662;13.300;2024-02-26T06:48:22;8.33;;;5.63;;
49946;SDS011;35839;48.662;13.300;2024-02-26T06:50:48;11.27;;;5.97;;
49946;SDS011;35839;48.662;13.300;2024-02-26T06:53:14;11.67;;;6.53;;
49946;SDS011;35839;48.662;13.300;2024-02-26T06:55:39;12.53;;;7.07;;
49946;SDS011;35839;48.662;13.300;2024-02-26T06:58:05;9.80;;;6.33;;
49946;SDS011;35839;48.662;13.300;2024-02-26T07:00:31;9.53;;;6.80;;
49946;SDS011;35839;48.662;13.300;2024-02-26T07:02:56;9.77;;;6.17;;
49946;SDS011;35839;48.662;13.300;2024-02-26T07:05:21;12.30;;;6.63;;
49946;SDS011;35839;48.662;13.300;2024-02-26T07:07:47;11.50;;;5.53;;
49946;SDS011;35839;48.662;13.300;2024-02-26T07:10:12;8.70;;;5.70;;
49946;SDS011;35839;48.662;13.300;2024-02-26T07:12:38;10.73;;;6.67;;
49946;SDS011;35839;48.662;13.300;2024-02-26T07:15:04;10.70;;;7.80;;
49946;SDS011;35839;48.662;13.300;2024-02-26T07:17:31;13.00;;;7.70;;
49946;SDS011;35839;48.662;13.300;2024-02-26T07:19:59;16.17;;;9.67;;
49946;SDS011;35839;48.662;13.300;2024-02-26T07:22:24;16.20;;;9.83;;
49946;SDS011;35839;48.662;13.300;2024-02-26T07:24:49;14.20;;;8.03;;
49946;SDS011;35839;48.662;13.300;2024-02-26T07:27:15;16.27;;;8.93;;
49946;SDS011;35839;48.662;13.300;2024-02-26T07:29:42;22.13;;;13.07;;
49946;SDS011;35839;48.662;13.300;2024-02-26T07:32:08;34.73;;;20.10;;
49946;SDS011;35839;48.662;13.300;2024-02-26T07:34:33;30.33;;;20.13;;
49946;SDS011;35839;48.662;13.300;2024-02-26T07:36:59;25.97;;;17.07;;
49946;SDS011;35839;48.662;13.300;2024-02-26T07:39:24;29.60;;;18.53;;
49946;SDS011;35839;48.662;13.300;2024-02-26T07:41:49;24.83;;;15.70;;
49946;SDS011;35839;48.662;13.300;2024-02-26T07:44:17;17.60;;;11.37;;
49946;SDS011;35839;48.662;13.300;2024-02-26T07:46:43;9.77;;;6.00;;
49946;SDS011;35839;48.662;13.300;2024-02-26T07:49:09;8.23;;;5.50;;
49946;SDS011;35839;48.662;13.300;2024-02-26T07:51:34;8.97;;;5.73;;
49946;SDS011;35839;48.662;13.300;2024-02-26T07:54:00;9.17;;;5.80;;
49946;SDS011;35839;48.662;13.300;2024-02-26T07:56:25;7.27;;;4.90;;
49946;SDS011;35839;48.662;13.300;2024-02-26T07:58:51;7.73;;;4.90;;
49946;SDS011;35839;48.662;13.300;2024-02-26T08:01:16;7.23;;;5.03;;
49946;SDS011;35839;48.662;13.300;2024-02-26T08:03:42;7.20;;;5.10;;
49946;SDS011;35839;48.662;13.300;2024-02-26T08:06:10;9.23;;;6.57;;
49946;SDS011;35839;48.662;13.300;2024-02-26T08:08:36;12.80;;;8.13;;
49946;SDS011;35839;48.662;13.300;2024-02-26T08:11:01;14.73;;;8.43;;
49946;SDS011;35839;48.662;13.300;2024-02-26T08:13:26;17.33;;;8.93;;
49946;SDS011;35839;48.662;13.300;2024-02-26T08:15:52;12.60;;;8.20;;
49946;SDS011;35839;48.662;13.300;2024-02-26T08:18:18;13.80;;;8.73;;
49946;SDS011;35839;48.662;13.300;2024-02-26T08:20:44;13.60;;;8.93;;
49946;SDS011;35839;48.662;13.300;2024-02-26T08:23:10;14.60;;;8.90;;
49946;SDS011;35839;48.662;13.300;2024-02-26T08:25:35;19.03;;;10.90;;
49946;SDS011;35839;48.662;13.300;2024-02-26T08:28:00;15.30;;;7.33;;
49946;SDS011;35839;48.662;13.300;2024-02-26T08:30:26;10.00;;;6.40;;
49946;SDS011;35839;48.662;13.300;2024-02-26T08:32:51;12.30;;;6.70;;
49946;SDS011;35839;48.662;13.300;2024-02-26T08:35:17;20.30;;;12.10;;
49946;SDS011;35839;48.662;13.300;2024-02-26T08:37:47;37.97;;;21.07;;
49946;SDS011;35839;48.662;13.300;2024-02-26T08:42:38;34.60;;;19.57;;
49946;SDS011;35839;48.662;13.300;2024-02-26T08:45:05;30.90;;;19.50;;
49946;SDS011;35839;48.662;13.300;2024-02-26T08:47:32;27.77;;;17.83;;
49946;SDS011;35839;48.662;13.300;2024-02-26T08:49:57;19.70;;;13.37;;
49946;SDS011;35839;48.662;13.300;2024-02-26T08:52:23;21.80;;;13.53;;
49946;SDS011;35839;48.662;13.300;2024-02-26T08:54:48;19.17;;;12.67;;
49946;SDS011;35839;48.662;13.300;2024-02-26T08:57:14;28.10;;;17.70;;
49946;SDS011;35839;48.662;13.300;2024-02-26T08:59:40;27.30;;;17.63;;
49946;SDS011;35839;48.662;13.300;2024-02-26T09:02:05;32.07;;;19.23;;
49946;SDS011;35839;48.662;13.300;2024-02-26T09:04:31;38.43;;;24.40;;
49946;SDS011;35839;48.662;13.300;2024-02-26T09:06:57;53.67;;;33.80;;
49946;SDS011;35839;48.662;13.300;2024-02-26T09:09:23;71.20;;;41.10;;
49946;SDS011;35839;48.662;13.300;2024-02-26T09:11:51;96.97;;;54.53;;
49946;SDS011;35839;48.662;13.300;2024-02-26T09:14:17;82.97;;;43.97;;
49946;SDS011;35839;48.662;13.300;2024-02-26T09:16:43;109.20;;;56.50;;
49946;SDS011;35839;48.662;13.300;2024-02-26T09:19:08;113.87;;;59.13;;
49946;SDS011;35839;48.662;13.300;2024-02-26T09:21:34;100.50;;;53.20;;
49946;SDS011;35839;48.662;13.300;2024-02-26T09:23:59;66.87;;;35.37;;
49946;SDS011;35839;48.662;13.300;2024-02-26T09:26:25;42.57;;;20.10;;
49946;SDS011;35839;48.662;13.300;2024-02-26T09:28:50;18.67;;;10.33;;
49946;SDS011;35839;48.662;13.300;2024-02-26T09:31:17;18.37;;;10.37;;
49946;SDS011;35839;48.662;13.300;2024-02-26T09:33:43;12.20;;;7.87;;
49946;SDS011;35839;48.662;13.300;2024-02-26T09:36:08;8.10;;;5.13;;
49946;SDS011;35839;48.662;13.300;2024-02-26T09:38:36;16.27;;;8.43;;
49946;SDS011;35839;48.662;13.300;2024-02-26T09:41:06;36.87;;;24.13;;
49946;SDS011;35839;48.662;13.300;2024-02-26T09:43:35;20.67;;;15.73;;
49946;SDS011;35839;48.662;13.300;2024-02-26T09:46:04;7.80;;;4.67;;
49946;SDS011;35839;48.662;13.300;2024-02-26T09:48:31;4.23;;;2.83;;
49946;SDS011;35839;48.662;13.300;2024-02-26T09:50:59;4.17;;;2.80;;
49946;SDS011;35839;48.662;13.300;2024-02-26T09:53:26;12.50;;;4.27;;
49946;SDS011;35839;48.662;13.300;2024-02-26T09:55:54;7.90;;;4.33;;
49946;SDS011;35839;48.662;13.300;2024-02-26T09:58:19;5.70;;;3.60;;
49946;SDS011;35839;48.662;13.300;2024-02-26T10:00:46;3.47;;;2.40;;
49946;SDS011;35839;48.662;13.300;2024-02-26T10:03:18;3.30;;;2.30;;
49946;SDS011;35839;48.662;13.300;2024-02-26T10:05:47;5.65;;;3.17;;
49946;SDS011;35839;48.662;13.300;2024-02-26T10:08:16;4.20;;;2.57;;
49946;SDS011;35839;48.662;13.300;2024-02-26T10:10:43;4.17;;;2.30;;
49946;SDS011;35839;48.662;13.300;2024-02-26T10:13:09;3.57;;;2.57;;
49946;SDS011;35839;48.662;13.300;2024-02-26T10:15:37;2.57;;;1.90;;
49946;SDS011;35839;48.662;13.300;2024-02-26T10:18:06;2.90;;;2.20;;
49946;SDS011;35839;48.662;13.300;2024-02-26T10:20:33;2.85;;;1.85;;
49946;SDS011;35839;48.662;13.300;2024-02-26T10:22:58;5.50;;;2.40;;
49946;SDS011;35839;48.662;13.300;2024-02-26T10:25:27;3.78;;;2.90;;
49946;SDS011;35839;48.662;13.300;2024-02-26T10:27:53;5.33;;;2.60;;
49946;SDS011;35839;48.662;13.300;2024-02-26T10:32:45;3.53;;;2.57;;
49946;SDS011;35839;48.662;13.300;2024-02-26T10:35:14;5.68;;;3.28;;
49946;SDS011;35839;48.662;13.300;2024-02-26T10:37:42;5.13;;;2.97;;
49946;SDS011;35839;48.662;13.300;2024-02-26T10:40:12;5.70;;;3.83;;
49946;SDS011;35839;48.662;13.300;2024-02-26T10:42:41;8.80;;;5.47;;
49946;SDS011;35839;48.662;13.300;2024-02-26T10:45:08;19.63;;;12.00;;
49946;SDS011;35839;48.662;13.300;2024-02-26T10:47:37;13.57;;;8.63;;
49946;SDS011;35839;48.662;13.300;2024-02-26T10:50:05;12.53;;;7.17;;
49946;SDS011;35839;48.662;13.300;2024-02-26T10:52:32;5.70;;;3.57;;
49946;SDS011;35839;48.662;13.300;2024-02-26T10:55:02;5.10;;;3.00;;
49946;SDS011;35839;48.662;13.300;2024-02-26T10:57:32;11.50;;;6.40;;
49946;SDS011;35839;48.662;13.300;2024-02-26T11:00:00;15.80;;;9.23;;
49946;SDS011;35839;48.662;13.300;2024-02-26T11:02:29;15.45;;;9.85;;
49946;SDS011;35839;48.662;13.300;2024-02-26T11:04:56;11.57;;;6.33;;
49946;SDS011;35839;48.662;13.300;2024-02-26T11:07:22;9.30;;;5.63;;
49946;SDS011;35839;48.662;13.300;2024-02-26T11:09:48;4.30;;;3.17;;
49946;SDS011;35839;48.662;13.300;2024-02-26T11:12:17;10.77;;;3.58;;
49946;SDS011;35839;48.662;13.300;2024-02-26T11:14:46;5.45;;;3.22;;
49946;SDS011;35839;48.662;13.300;2024-02-26T11:17:12;5.38;;;2.65;;
49946;SDS011;35839;48.662;13.300;2024-02-26T11:19:39;4.40;;;3.00;;
49946;SDS011;35839;48.662;13.300;2024-02-26T11:22:07;3.42;;;2.15;;
49946;SDS011;35839;48.662;13.300;2024-02-26T11:24:33;7.57;;;4.10;;
49946;SDS011;35839;48.662;13.300;2024-02-26T11:27:01;13.87;;;4.10;;
49946;SDS011;35839;48.662;13.300;2024-02-26T11:29:32;3.15;;;1.98;;
49946;SDS011;35839;48.662;13.300;2024-02-26T11:32:02;3.10;;;2.20;;
49946;SDS011;35839;48.662;13.300;2024-02-26T11:34:28;4.53;;;2.45;;
49946;SDS011;35839;48.662;13.300;2024-02-26T11:36:54;3.63;;;2.23;;
49946;SDS011;35839;48.662;13.300;2024-02-26T11:39:22;3.63;;;1.93;;
49946;SDS011;35839;48.662;13.300;2024-02-26T11:41:49;3.42;;;2.08;;
49946;SDS011;35839;48.662;13.300;2024-02-26T11:44:15;3.53;;;2.30;;
49946;SDS011;35839;48.662;13.300;2024-02-26T11:46:54;3.33;;;1.90;;
49946;SDS011;35839;48.662;13.300;2024-02-26T11:51:53;3.87;;;2.03;;
49946;SDS011;35839;48.662;13.300;2024-02-26T11:57:21;3.67;;;2.03;;
49946;SDS011;35839;48.662;13.300;2024-02-26T11:59:52;6.35;;;2.72;;
49946;SDS011;35839;48.662;13.300;2024-02-26T12:07:44;4.07;;;2.53;;
49946;SDS011;35839;48.662;13.300;2024-02-26T12:12:55;4.53;;;2.63;;
49946;SDS011;35839;48.662;13.300;2024-02-26T12:15:29;3.87;;;2.50;;
49946;SDS011;35839;48.662;13.300;2024-02-26T12:17:55;3.47;;;2.20;;
49946;SDS011;35839;48.662;13.300;2024-02-26T12:20:23;3.33;;;2.47;;
49946;SDS011;35839;48.662;13.300;2024-02-26T12:22:49;2.90;;;2.37;;
49946;SDS011;35839;48.662;13.300;2024-02-26T12:25:17;3.53;;;1.70;;
49946;SDS011;35839;48.662;13.300;2024-02-26T12:27:46;3.58;;;2.22;;
49946;SDS011;35839;48.662;13.300;2024-02-26T12:30:11;2.63;;;2.17;;
49946;SDS011;35839;48.662;13.300;2024-02-26T12:32:39;2.67;;;1.93;;
49946;SDS011;35839;48.662;13.300;2024-02-26T12:35:05;3.37;;;2.20;;
49946;SDS011;35839;48.662;13.300;2024-02-26T12:37:31;3.80;;;2.13;;
49946;SDS011;35839;48.662;13.300;2024-02-26T12:39:57;3.73;;;2.40;;
49946;SDS011;35839;48.662;13.300;2024-02-26T12:42:22;3.10;;;2.23;;
49946;SDS011;35839;48.662;13.300;2024-02-26T12:44:49;4.72;;;2.50;;
49946;SDS011;35839;48.662;13.300;2024-02-26T12:47:15;4.38;;;2.60;;
49946;SDS011;35839;48.662;13.300;2024-02-26T12:49:46;6.00;;;3.23;;
49946;SDS011;35839;48.662;13.300;2024-02-26T12:52:13;9.17;;;4.90;;
49946;SDS011;35839;48.662;13.300;2024-02-26T12:54:38;6.03;;;2.87;;
49946;SDS011;35839;48.662;13.300;2024-02-26T12:57:05;4.97;;;2.10;;
49946;SDS011;35839;48.662;13.300;2024-02-26T12:59:34;3.00;;;2.17;;
49946;SDS011;35839;48.662;13.300;2024-02-26T13:02:02;5.57;;;3.30;;
49946;SDS011;35839;48.662;13.300;2024-02-26T13:04:28;9.75;;;5.32;;
49946;SDS011;35839;48.662;13.300;2024-02-26T13:06:55;6.97;;;5.25;;
49946;SDS011;35839;48.662;13.300;2024-02-26T13:09:25;7.30;;;4.35;;
49946;SDS011;35839;48.662;13.300;2024-02-26T13:11:55;7.80;;;3.83;;
49946;SDS011;35839;48.662;13.300;2024-02-26T13:14:20;6.50;;;4.72;;
49946;SDS011;35839;48.662;13.300;2024-02-26T13:16:56;6.72;;;3.92;;
49946;SDS011;35839;48.662;13.300;2024-02-26T13:19:22;4.72;;;3.50;;
49946;SDS011;35839;48.662;13.300;2024-02-26T13:21:48;5.68;;;3.88;;
49946;SDS011;35839;48.662;13.300;2024-02-26T13:24:13;8.13;;;4.72;;
49946;SDS011;35839;48.662;13.300;2024-02-26T13:26:39;21.25;;;13.57;;
49946;SDS011;35839;48.662;13.300;2024-02-26T13:29:04;15.13;;;7.95;;
49946;SDS011;35839;48.662;13.300;2024-02-26T13:31:30;5.55;;;4.07;;
49946;SDS011;35839;48.662;13.300;2024-02-26T13:33:56;6.68;;;3.20;;
49946;SDS011;35839;48.662;13.300;2024-02-26T13:36:22;3.38;;;2.35;;
49946;SDS011;35839;48.662;13.300;2024-02-26T13:38:52;4.63;;;2.63;;
49946;SDS011;35839;48.662;13.300;2024-02-26T13:41:19;8.77;;;3.78;;
49946;SDS011;35839;48.662;13.300;2024-02-26T13:43:45;5.00;;;3.20;;
49946;SDS011;35839;48.662;13.300;2024-02-26T13:46:11;4.78;;;3.00;;
49946;SDS011;35839;48.662;13.300;2024-02-26T13:48:39;5.18;;;2.63;;
49946;SDS011;35839;48.662;13.300;2024-02-26T13:51:04;5.03;;;3.08;;
49946;SDS011;35839;48.662;13.300;2024-02-26T13:53:30;5.57;;;3.33;;
49946;SDS011;35839;48.662;13.300;2024-02-26T13:55:55;9.40;;;4.07;;
49946;SDS011;35839;48.662;13.300;2024-02-26T13:58:23;14.00;;;6.00;;
49946;SDS011;35839;48.662;13.300;2024-02-26T14:00:50;5.07;;;3.50;;
49946;SDS011;35839;48.662;13.300;2024-02-26T14:03:15;3.03;;;1.85;;
49946;SDS011;35839;48.662;13.300;2024-02-26T14:05:41;5.75;;;2.00;;
49946;SDS011;35839;48.662;13.300;2024-02-26T14:08:07;2.60;;;1.98;;
49946;SDS011;35839;48.662;13.300;2024-02-26T14:10:32;9.68;;;4.60;;
49946;SDS011;35839;48.662;13.300;2024-02-26T14:12:58;9.88;;;3.58;;
49946;SDS011;35839;48.662;13.300;2024-02-26T14:15:27;4.53;;;2.58;;
49946;SDS011;35839;48.662;13.300;2024-02-26T14:18:00;4.82;;;2.03;;
49946;SDS011;35839;48.662;13.300;2024-02-26T14:20:27;9.63;;;2.17;;
49946;SDS011;35839;48.662;13.300;2024-02-26T14:22:53;4.25;;;1.95;;
49946;SDS011;35839;48.662;13.300;2024-02-26T14:25:19;5.38;;;2.85;;
49946;SDS011;35839;48.662;13.300;2024-02-26T14:27:46;5.93;;;3.88;;
49946;SDS011;35839;48.662;13.300;2024-02-26T14:30:12;8.25;;;5.47;;
49946;SDS011;35839;48.662;13.300;2024-02-26T14:32:38;7.22;;;4.38;;
49946;SDS011;35839;48.662;13.300;2024-02-26T14:35:07;6.53;;;5.38;;
49946;SDS011;35839;48.662;13.300;2024-02-26T14:37:34;8.43;;;5.50;;
49946;SDS011;35839;48.662;13.300;2024-02-26T14:40:00;11.98;;;8.00;;